createdAt,value
2022-10-22T00:00:55.732Z,100214.78
2022-10-22T00:03:24.741Z,100212.41
2022-10-22T00:05:52.413Z,100206.38
2022-10-22T00:08:20.070Z,100206.94
2022-10-22T00:10:47.693Z,100205.13
2022-10-22T00:13:15.341Z,100206.78
2022-10-22T00:15:43.012Z,100208.47
2022-10-22T00:18:10.657Z,100206.78
2022-10-22T00:20:39.706Z,100221.94
2022-10-22T00:23:07.365Z,100231.19
2022-10-22T00:25:36.329Z,100228.06
2022-10-22T00:28:04.323Z,100233.28
2022-10-22T00:30:32.127Z,100243.81
2022-10-22T00:32:59.754Z,100233.09
2022-10-22T00:35:27.472Z,100245.47
2022-10-22T00:37:56.481Z,100247.44
2022-10-22T00:40:24.198Z,100236.94
2022-10-22T00:42:51.841Z,100244.25
2022-10-22T00:45:24.796Z,100239.50
2022-10-22T00:47:56.232Z,100246.78
2022-10-22T00:50:27.363Z,100238.50
2022-10-22T00:52:57.135Z,100255.75
2022-10-22T00:55:25.620Z,100253.75
2022-10-22T00:57:53.849Z,100251.13
2022-10-22T01:00:21.740Z,100259.06
2022-10-22T01:02:50.662Z,100250.41
2022-10-22T01:05:18.665Z,100242.25
2022-10-22T01:07:49.416Z,100242.81
2022-10-22T01:10:29.215Z,100239.69
2022-10-22T01:13:03.665Z,100244.50
2022-10-22T01:15:37.982Z,100248.69
2022-10-22T01:18:08.546Z,100248.13
2022-10-22T01:20:58.069Z,100247.84
2022-10-22T01:23:39.550Z,100249.34
2022-10-22T01:26:16.715Z,100247.84
2022-10-22T01:28:55.596Z,100247.41
2022-10-22T01:31:25.013Z,100247.06
2022-10-22T01:33:54.405Z,100248.09
2022-10-22T01:36:23.006Z,100246.31
2022-10-22T01:38:51.146Z,100230.44
2022-10-22T01:41:18.934Z,100225.06
2022-10-22T01:43:47.914Z,100232.44
2022-10-22T01:46:23.424Z,100229.63
2022-10-22T01:49:06.787Z,100235.22
2022-10-22T01:51:43.839Z,100234.09
2022-10-22T01:54:18.903Z,100232.66
2022-10-22T01:56:56.098Z,100233.09
2022-10-22T01:59:33.738Z,100239.09
2022-10-22T02:02:06.190Z,100237.44
2022-10-22T02:04:36.835Z,100240.56
2022-10-22T02:07:07.804Z,100231.00
2022-10-22T02:09:36.193Z,100226.50
2022-10-22T02:14:41.105Z,100234.16
2022-10-22T02:17:10.462Z,100237.56
2022-10-22T02:19:39.828Z,100232.66
2022-10-22T02:22:07.758Z,100238.41
2022-10-22T02:24:35.571Z,100231.31
2022-10-22T02:27:08.466Z,100240.06
2022-10-22T02:29:40.621Z,100243.81
2022-10-22T02:32:10.945Z,100245.94
2022-10-22T02:34:38.783Z,100247.31
2022-10-22T02:37:07.269Z,100242.81
2022-10-22T02:39:36.169Z,100243.69
2022-10-22T02:42:04.053Z,100253.22
2022-10-22T02:44:31.740Z,100245.81
2022-10-22T02:47:01.023Z,100237.25
2022-10-22T02:49:29.077Z,100240.19
2022-10-22T02:51:57.106Z,100244.13
2022-10-22T02:54:24.737Z,100235.53
2022-10-22T02:56:52.398Z,100239.44
2022-10-22T02:59:20.032Z,100254.50
2022-10-22T03:01:48.070Z,100244.59
2022-10-22T03:04:17.081Z,100242.00
2022-10-22T03:06:44.855Z,100244.81
2022-10-22T03:09:12.576Z,100250.41
2022-10-22T03:11:40.217Z,100247.31
2022-10-22T03:14:07.870Z,100235.59
2022-10-22T03:16:35.527Z,100245.31
2022-10-22T03:19:03.193Z,100243.44
2022-10-22T03:21:35.564Z,100246.09
2022-10-22T03:24:04.509Z,100246.91
2022-10-22T03:26:32.480Z,100248.56
2022-10-22T03:29:00.802Z,100242.22
2022-10-22T03:31:28.866Z,100249.00
2022-10-22T03:33:56.505Z,100254.41
2022-10-22T03:36:24.133Z,100246.09
2022-10-22T03:38:53.313Z,100258.34
2022-10-22T03:41:21.141Z,100258.03
2022-10-22T03:43:52.695Z,100254.31
2022-10-22T03:46:20.331Z,100248.81
2022-10-22T03:48:48.352Z,100259.81
2022-10-22T03:51:16.003Z,100263.16
2022-10-22T03:53:43.703Z,100256.31
2022-10-22T03:56:13.626Z,100257.44
2022-10-22T03:58:42.307Z,100266.56
2022-10-22T04:01:11.479Z,100258.34
2022-10-22T04:03:39.906Z,100255.97
2022-10-22T04:06:09.744Z,100257.88
2022-10-22T04:08:40.001Z,100261.16
2022-10-22T04:11:08.077Z,100251.84
2022-10-22T04:13:37.372Z,100253.63
2022-10-22T04:16:09.785Z,100256.53
2022-10-22T04:18:37.565Z,100259.69
2022-10-22T04:21:05.881Z,100252.34
2022-10-22T04:23:33.525Z,100261.16
2022-10-22T04:26:01.437Z,100258.84
2022-10-22T04:28:29.421Z,100255.75
2022-10-22T04:30:58.477Z,100263.00
2022-10-22T04:33:26.264Z,100267.63
2022-10-22T04:35:54.009Z,100266.72
2022-10-22T04:38:21.701Z,100264.97
2022-10-22T04:40:49.318Z,100272.63
2022-10-22T04:43:16.981Z,100267.69
2022-10-22T04:45:44.647Z,100275.41
2022-10-22T04:48:13.682Z,100269.84
2022-10-22T04:50:41.420Z,100276.59
2022-10-22T04:53:09.094Z,100278.44
2022-10-22T04:55:36.722Z,100271.84
2022-10-22T04:58:04.572Z,100270.88
2022-10-22T05:00:32.202Z,100273.09
2022-10-22T05:02:59.933Z,100273.97
2022-10-22T05:05:28.946Z,100277.03
2022-10-22T05:07:56.556Z,100286.97
2022-10-22T05:10:24.189Z,100278.50
2022-10-22T05:12:51.927Z,100278.22
2022-10-22T05:15:19.553Z,100282.41
2022-10-22T05:17:47.225Z,100285.16
2022-10-22T05:20:14.877Z,100280.47
2022-10-22T05:22:43.892Z,100279.56
2022-10-22T05:25:12.186Z,100285.81
2022-10-22T05:27:40.188Z,100286.47
2022-10-22T05:30:08.746Z,100286.28
2022-10-22T05:32:36.665Z,100288.47
2022-10-22T05:35:04.463Z,100290.34
2022-10-22T05:37:32.078Z,100289.63
2022-10-22T05:40:12.485Z,100306.56
2022-10-22T05:42:49.081Z,100304.47
2022-10-22T05:45:16.765Z,100307.13
2022-10-22T05:47:44.401Z,100302.13
2022-10-22T05:50:12.021Z,100293.38
2022-10-22T05:52:39.999Z,100304.59
2022-10-22T05:55:09.621Z,100295.13
2022-10-22T05:57:37.271Z,100295.88
2022-10-22T06:00:05.625Z,100304.47
2022-10-22T06:02:33.282Z,100311.78
2022-10-22T06:05:01.079Z,100305.63
2022-10-22T06:07:28.809Z,100300.63
2022-10-22T06:09:56.443Z,100310.72
2022-10-22T06:12:25.560Z,100308.34
2022-10-22T06:14:53.274Z,100316.88
2022-10-22T06:17:20.918Z,100309.75
2022-10-22T06:19:48.538Z,100314.59
2022-10-22T06:22:16.179Z,100310.47
2022-10-22T06:24:45.121Z,100321.00
2022-10-22T06:27:13.000Z,100323.41
2022-10-22T06:29:41.976Z,100323.53
2022-10-22T06:32:09.639Z,100331.78
2022-10-22T06:34:37.302Z,100339.66
2022-10-22T06:37:04.969Z,100338.53
2022-10-22T06:39:32.708Z,100344.81
2022-10-22T06:42:00.162Z,100346.38
2022-10-22T06:44:27.637Z,100354.50
2022-10-22T06:46:56.433Z,100347.13
2022-10-22T06:49:23.977Z,100343.84
2022-10-22T06:51:51.597Z,100349.38
2022-10-22T06:54:19.100Z,100354.28
2022-10-22T06:56:46.699Z,100365.72
2022-10-22T06:59:14.202Z,100358.78
2022-10-22T07:01:42.317Z,100363.34
2022-10-22T07:04:12.121Z,100370.56
2022-10-22T07:06:39.580Z,100367.16
2022-10-22T07:09:07.181Z,100374.94
2022-10-22T07:11:38.703Z,100384.53
2022-10-22T07:14:06.201Z,100384.75
2022-10-22T07:16:33.645Z,100394.41
2022-10-22T07:19:01.145Z,100393.91
2022-10-22T07:21:30.573Z,100401.03
2022-10-22T07:23:58.113Z,100409.03
2022-10-22T07:26:27.101Z,100405.09
2022-10-22T07:28:54.566Z,100409.84
2022-10-22T07:31:22.017Z,100422.09
2022-10-22T07:33:49.493Z,100428.41
2022-10-22T07:36:18.344Z,100416.56
2022-10-22T07:38:48.160Z,100421.97
2022-10-22T07:41:15.691Z,100425.88
2022-10-22T07:43:43.159Z,100425.13
2022-10-22T07:46:10.671Z,100423.50
2022-10-22T07:48:38.353Z,100434.97
2022-10-22T07:51:06.534Z,100434.25
2022-10-22T07:53:34.143Z,100421.38
2022-10-22T07:56:02.974Z,100418.72
2022-10-22T07:58:30.596Z,100428.41
2022-10-22T08:00:58.783Z,100443.97
2022-10-22T08:03:26.295Z,100446.47
2022-10-22T08:05:53.789Z,100433.47
2022-10-22T08:08:21.452Z,100452.91
2022-10-22T08:10:49.249Z,100452.06
2022-10-22T08:13:18.087Z,100460.53
2022-10-22T08:15:46.753Z,100450.06
2022-10-22T08:18:14.379Z,100464.59
2022-10-22T08:20:42.028Z,100448.06
2022-10-22T08:23:09.694Z,100455.66
2022-10-22T08:25:37.197Z,100459.28
2022-10-22T08:28:04.766Z,100446.03
2022-10-22T08:30:33.966Z,100462.63
2022-10-22T08:33:01.449Z,100484.50
2022-10-22T08:35:28.932Z,100456.88
2022-10-22T08:37:56.899Z,100460.13
2022-10-22T08:40:26.002Z,100478.22
2022-10-22T08:43:12.671Z,100467.28
2022-10-22T08:45:42.222Z,100475.13
2022-10-22T08:48:11.728Z,100478.28
2022-10-22T08:50:40.077Z,100477.38
2022-10-22T08:53:08.364Z,100471.94
2022-10-22T08:55:37.426Z,100473.28
2022-10-22T08:58:07.024Z,100485.25
2022-10-22T09:00:35.674Z,100484.09
2022-10-22T09:03:09.067Z,100497.41
2022-10-22T09:05:40.398Z,100493.91
2022-10-22T09:08:09.846Z,100491.97
2022-10-22T09:10:37.860Z,100488.00
2022-10-22T09:13:05.318Z,100494.59
2022-10-22T09:15:32.806Z,100481.44
2022-10-22T09:18:02.852Z,100511.72
2022-10-22T09:20:33.600Z,100493.47
2022-10-22T09:23:05.266Z,100491.66
2022-10-22T09:25:33.222Z,100493.19
2022-10-22T09:28:01.114Z,100507.72
2022-10-22T09:30:29.676Z,100493.88
2022-10-22T09:33:00.137Z,100507.19
2022-10-22T09:35:27.690Z,100512.47
2022-10-22T09:37:57.406Z,100502.38
2022-10-22T09:40:24.938Z,100520.59
2022-10-22T09:42:52.434Z,100520.50
2022-10-22T09:45:21.199Z,100516.66
2022-10-22T09:48:03.987Z,100516.19
2022-10-22T09:50:38.353Z,100521.22
2022-10-22T09:53:11.944Z,100513.44
2022-10-22T09:55:39.427Z,100527.13
2022-10-22T09:58:06.889Z,100533.03
2022-10-22T10:00:34.365Z,100524.41
2022-10-22T10:03:01.884Z,100538.72
2022-10-22T10:05:30.706Z,100537.91
2022-10-22T10:07:58.166Z,100548.81
2022-10-22T10:10:32.157Z,100548.16
2022-10-22T10:13:02.333Z,100542.94
2022-10-22T10:15:30.002Z,100552.75
2022-10-22T10:18:01.439Z,100563.56
2022-10-22T10:20:31.100Z,100562.09
2022-10-22T10:22:59.770Z,100559.84
2022-10-22T10:25:29.616Z,100554.34
2022-10-22T10:28:00.445Z,100564.16
2022-10-22T10:30:27.885Z,100572.69
2022-10-22T10:33:06.893Z,100568.78
2022-10-22T10:35:37.829Z,100576.09
2022-10-22T10:38:09.674Z,100574.00
2022-10-22T10:40:41.306Z,100579.22
2022-10-22T10:43:10.917Z,100580.38
2022-10-22T10:45:40.214Z,100592.03
2022-10-22T10:48:16.292Z,100565.47
2022-10-22T10:50:49.013Z,100582.59
2022-10-22T10:53:18.925Z,100591.56
2022-10-22T10:55:51.562Z,100592.56
2022-10-22T10:58:22.450Z,100593.94
2022-10-22T11:00:52.053Z,100588.59
2022-10-22T11:03:49.615Z,100601.44
2022-10-22T11:06:19.416Z,100593.38
2022-10-22T11:08:54.660Z,100603.94
2022-10-22T11:11:22.789Z,100590.63
2022-10-22T11:13:53.161Z,100606.19
2022-10-22T11:16:21.731Z,100607.28
2022-10-22T11:18:49.465Z,100613.56
2022-10-22T11:21:18.693Z,100604.13
2022-10-22T11:23:46.941Z,100611.28
2022-10-22T11:26:15.562Z,100624.78
2022-10-22T11:28:43.433Z,100608.69
2022-10-22T11:31:14.567Z,100616.31
2022-10-22T11:33:43.683Z,100616.50
2022-10-22T11:36:11.120Z,100607.03
2022-10-22T11:38:38.848Z,100599.84
2022-10-22T11:41:07.585Z,100615.88
2022-10-22T11:43:36.365Z,100611.47
2022-10-22T11:46:09.416Z,100614.47
2022-10-22T11:48:38.799Z,100609.72
2022-10-22T11:51:16.635Z,100608.53
2022-10-22T11:53:44.121Z,100617.16
2022-10-22T11:56:24.408Z,100613.78
2022-10-22T11:58:54.008Z,100617.84
2022-10-22T12:01:26.565Z,100627.22
2022-10-22T12:04:15.944Z,100619.78
2022-10-22T12:06:54.469Z,100614.75
2022-10-22T12:09:21.939Z,100608.88
2022-10-22T12:11:50.714Z,100606.53
2022-10-22T12:14:20.500Z,100613.63
2022-10-22T12:16:56.136Z,100621.66
2022-10-22T12:19:30.547Z,100609.31
2022-10-22T12:21:59.245Z,100627.06
2022-10-22T12:24:26.894Z,100615.19
2022-10-22T12:26:54.333Z,100601.69
2022-10-22T12:29:23.665Z,100607.88
2022-10-22T12:31:51.227Z,100604.22
2022-10-22T12:34:19.397Z,100597.72
2022-10-22T12:36:49.073Z,100603.44
2022-10-22T12:39:17.592Z,100610.22
2022-10-22T12:41:45.394Z,100612.06
2022-10-22T12:44:13.557Z,100618.28
2022-10-22T12:46:41.348Z,100614.44
2022-10-22T12:49:09.737Z,100601.09
2022-10-22T12:51:37.235Z,100606.25
2022-10-22T12:54:08.177Z,100612.47
2022-10-22T12:56:36.057Z,100596.31
2022-10-22T12:59:04.480Z,100599.25
2022-10-22T13:01:33.946Z,100614.78
2022-10-22T13:04:05.740Z,100616.94
2022-10-22T13:06:34.474Z,100595.41
2022-10-22T13:09:09.740Z,100613.84
2022-10-22T13:11:39.190Z,100603.75
2022-10-22T13:14:07.224Z,100622.50
2022-10-22T13:19:07.043Z,100616.72
2022-10-22T13:21:35.135Z,100619.28
2022-10-22T13:24:03.547Z,100599.28
2022-10-22T13:26:33.189Z,100615.66
2022-10-22T13:29:01.413Z,100614.69
2022-10-22T13:31:29.684Z,100609.78
2022-10-22T13:33:57.816Z,100613.44
2022-10-22T13:36:25.277Z,100616.91
2022-10-22T13:38:52.725Z,100617.38
2022-10-22T13:41:21.140Z,100630.06
2022-10-22T13:43:49.956Z,100613.72
2022-10-22T13:46:17.588Z,100615.38
2022-10-22T13:48:45.056Z,100620.56
2022-10-22T13:51:14.782Z,100625.16
2022-10-22T13:53:42.307Z,100616.66
2022-10-22T13:56:11.313Z,100633.19
2022-10-22T13:58:38.744Z,100622.16
2022-10-22T14:01:10.031Z,100630.28
2022-10-22T14:03:37.734Z,100646.91
2022-10-22T14:06:05.505Z,100644.97
2022-10-22T14:08:33.016Z,100630.31
2022-10-22T14:11:00.494Z,100620.47
2022-10-22T14:13:28.042Z,100619.47
2022-10-22T14:15:55.466Z,100610.00
2022-10-22T14:18:26.503Z,100624.75
2022-10-22T14:20:54.183Z,100633.81
2022-10-22T14:23:22.573Z,100631.03
2022-10-22T14:25:50.951Z,100631.91
2022-10-22T14:28:18.499Z,100636.22
2022-10-22T14:30:46.313Z,100629.66
2022-10-22T14:33:14.619Z,100633.72
2022-10-22T14:35:43.460Z,100631.25
2022-10-22T14:38:11.054Z,100649.13
2022-10-22T14:40:39.599Z,100640.75
2022-10-22T14:43:07.060Z,100635.69
2022-10-22T14:45:34.516Z,100647.63
2022-10-22T14:48:01.982Z,100635.69
2022-10-22T14:50:29.478Z,100647.16
2022-10-22T14:52:59.759Z,100647.22
2022-10-22T14:55:27.454Z,100647.88
2022-10-22T14:57:54.896Z,100626.97
2022-10-22T15:00:22.524Z,100651.44
2022-10-22T15:02:50.000Z,100645.19
2022-10-22T15:05:17.500Z,100644.69
2022-10-22T15:07:45.962Z,100653.28
2022-10-22T15:10:14.793Z,100646.41
2022-10-22T15:12:42.230Z,100637.75
2022-10-22T15:15:10.117Z,100654.31
2022-10-22T15:17:37.579Z,100650.78
2022-10-22T15:20:05.686Z,100654.59
2022-10-22T15:22:35.156Z,100664.44
2022-10-22T15:25:03.064Z,100668.94
2022-10-22T15:27:31.935Z,100663.19
2022-10-22T15:29:59.845Z,100670.56
2022-10-22T15:32:28.278Z,100667.91
2022-10-22T15:34:55.820Z,100669.88
2022-10-22T15:37:23.605Z,100666.03
2022-10-22T15:39:51.044Z,100661.84
2022-10-22T15:42:18.949Z,100686.44
2022-10-22T15:44:47.753Z,100679.28
2022-10-22T15:47:15.213Z,100691.38
2022-10-22T15:49:42.794Z,100692.22
2022-10-22T15:52:10.301Z,100698.56
2022-10-22T15:54:37.764Z,100684.91
2022-10-22T15:57:08.513Z,100689.41
2022-10-22T15:59:36.618Z,100689.66
2022-10-22T16:02:07.165Z,100699.63
2022-10-22T16:04:34.673Z,100696.66
2022-10-22T16:07:02.116Z,100694.13
2022-10-22T16:09:29.620Z,100691.88
2022-10-22T16:11:57.436Z,100695.34
2022-10-22T16:14:24.909Z,100698.28
2022-10-22T16:16:53.327Z,100707.56
2022-10-22T16:19:22.747Z,100707.63
2022-10-22T16:21:51.187Z,100712.81
2022-10-22T16:24:19.080Z,100713.59
2022-10-22T16:26:46.688Z,100719.38
2022-10-22T16:29:14.157Z,100714.44
2022-10-22T16:31:43.501Z,100711.84
2022-10-22T16:34:10.975Z,100705.16
2022-10-22T16:36:39.892Z,100710.69
2022-10-22T16:39:07.758Z,100715.19
2022-10-22T16:41:36.330Z,100709.19
2022-10-22T16:44:04.396Z,100718.75
2022-10-22T16:46:32.010Z,100721.53
2022-10-22T16:48:59.476Z,100718.66
2022-10-22T16:51:27.460Z,100723.06
2022-10-22T16:53:56.825Z,100717.28
2022-10-22T16:56:24.446Z,100719.81
2022-10-22T16:58:52.777Z,100725.06
2022-10-22T17:01:21.181Z,100720.78
2022-10-22T17:03:48.960Z,100727.59
2022-10-22T17:06:16.526Z,100727.81
2022-10-22T17:08:44.087Z,100726.28
2022-10-22T17:11:13.745Z,100730.72
2022-10-22T17:13:41.357Z,100728.31
2022-10-22T17:16:09.789Z,100728.78
2022-10-22T17:18:37.852Z,100739.44
2022-10-22T17:21:05.436Z,100743.09
2022-10-22T17:23:32.909Z,100742.16
2022-10-22T17:26:01.055Z,100747.00
2022-10-22T17:28:29.989Z,100748.44
2022-10-22T17:31:04.772Z,100756.28
2022-10-22T17:33:32.473Z,100753.88
2022-10-22T17:35:59.978Z,100753.28
2022-10-22T17:38:27.464Z,100765.00
2022-10-22T17:40:55.135Z,100756.06
2022-10-22T17:43:22.685Z,100770.19
2022-10-22T17:45:51.471Z,100779.63
2022-10-22T17:48:18.936Z,100777.34
2022-10-22T17:50:49.645Z,100777.72
2022-10-22T17:53:19.524Z,100776.88
2022-10-22T17:55:46.985Z,100774.09
2022-10-22T17:58:14.453Z,100777.47
2022-10-22T18:00:41.923Z,100775.56
2022-10-22T18:03:10.951Z,100785.47
2022-10-22T18:05:38.404Z,100780.41
2022-10-22T18:08:07.753Z,100791.50
2022-10-22T18:10:35.388Z,100788.28
2022-10-22T18:13:03.211Z,100798.72
2022-10-22T18:15:31.963Z,100792.63
2022-10-22T18:17:59.397Z,100798.53
2022-10-22T18:20:28.276Z,100800.84
2022-10-22T18:22:55.892Z,100805.72
2022-10-22T18:25:23.377Z,100804.25
2022-10-22T18:27:50.881Z,100811.91
2022-10-22T18:30:18.421Z,100807.31
2022-10-22T18:32:45.865Z,100805.50
2022-10-22T18:35:13.332Z,100807.63
2022-10-22T18:37:42.635Z,100800.63
2022-10-22T18:40:14.471Z,100810.75
2022-10-22T18:42:42.793Z,100810.41
2022-10-22T18:45:11.971Z,100811.91
2022-10-22T18:47:40.649Z,100813.41
2022-10-22T18:50:08.594Z,100807.88
2022-10-22T18:52:36.069Z,100814.44
2022-10-22T18:55:05.581Z,100814.22
2022-10-22T18:57:33.062Z,100802.84
2022-10-22T19:00:00.518Z,100800.59
2022-10-22T19:02:29.632Z,100800.59
2022-10-22T19:04:57.094Z,100788.47
2022-10-22T19:07:24.565Z,100795.97
2022-10-22T19:09:52.034Z,100794.13
2022-10-22T19:12:21.646Z,100785.34
2022-10-22T19:14:49.652Z,100787.75
2022-10-22T19:17:17.120Z,100790.75
2022-10-22T19:19:45.046Z,100796.06
2022-10-22T19:22:12.860Z,100803.06
2022-10-22T19:24:40.513Z,100807.13
2022-10-22T19:27:08.457Z,100806.06
2022-10-22T19:29:37.253Z,100815.84
2022-10-22T19:32:04.798Z,100809.50
2022-10-22T19:34:32.349Z,100810.47
2022-10-22T19:36:59.799Z,100814.59
2022-10-22T19:39:27.240Z,100817.53
2022-10-22T19:41:54.717Z,100818.84
2022-10-22T19:44:22.198Z,100814.72
2022-10-22T19:46:51.011Z,100812.06
2022-10-22T19:49:21.995Z,100812.50
2022-10-22T19:51:50.531Z,100809.75
2022-10-22T19:54:20.304Z,100818.72
2022-10-22T19:56:48.184Z,100814.53
2022-10-22T19:59:16.079Z,100819.00
2022-10-22T20:01:43.516Z,100820.25
2022-10-22T20:04:12.353Z,100820.81
2022-10-22T20:06:39.902Z,100827.41
2022-10-22T20:09:07.393Z,100827.63
2022-10-22T20:11:34.889Z,100828.13
2022-10-22T20:14:02.354Z,100820.50
2022-10-22T20:16:30.288Z,100823.41
2022-10-22T20:19:00.157Z,100828.78
2022-10-22T20:21:29.062Z,100821.78
2022-10-22T20:23:57.345Z,100820.56
2022-10-22T20:26:27.719Z,100825.75
2022-10-22T20:28:55.180Z,100811.06
2022-10-22T20:31:24.002Z,100811.47
2022-10-22T20:33:51.753Z,100816.31
2022-10-22T20:36:19.833Z,100814.13
2022-10-22T20:38:48.860Z,100812.31
2022-10-22T20:41:19.569Z,100817.28
2022-10-22T20:43:47.388Z,100817.03
2022-10-22T20:46:15.862Z,100809.66
2022-10-22T20:48:43.813Z,100809.91
2022-10-22T20:51:11.263Z,100814.69
2022-10-22T20:53:38.720Z,100815.34
2022-10-22T20:56:07.823Z,100808.91
2022-10-22T20:58:35.286Z,100812.88
2022-10-22T21:01:09.829Z,100809.34
2022-10-22T21:03:37.933Z,100808.06
2022-10-22T21:06:05.685Z,100809.97
2022-10-22T21:08:33.161Z,100799.00
2022-10-22T21:11:00.652Z,100801.09
2022-10-22T21:13:29.932Z,100796.28
2022-10-22T21:15:57.534Z,100809.84
2022-10-22T21:18:24.998Z,100807.69
2022-10-22T21:20:52.446Z,100805.50
2022-10-22T21:23:19.900Z,100801.81
2022-10-22T21:25:53.504Z,100796.13
2022-10-22T21:28:21.043Z,100807.88
2022-10-22T21:30:49.918Z,100800.41
2022-10-22T21:33:17.425Z,100805.69
2022-10-22T21:35:50.409Z,100804.88
2022-10-22T21:38:17.874Z,100802.59
2022-10-22T21:40:45.349Z,100816.00
2022-10-22T21:43:12.796Z,100812.91
2022-10-22T21:45:40.250Z,100810.59
2022-10-22T21:48:09.274Z,100805.84
2022-10-22T21:50:39.361Z,100818.16
2022-10-22T21:53:06.794Z,100816.75
2022-10-22T21:55:37.956Z,100823.31
2022-10-22T21:58:05.418Z,100818.34
2022-10-22T22:00:32.872Z,100818.22
2022-10-22T22:03:00.446Z,100816.81
2022-10-22T22:05:29.529Z,100823.09
2022-10-22T22:07:57.052Z,100827.66
2022-10-22T22:10:25.170Z,100826.69
2022-10-22T22:12:52.752Z,100819.69
2022-10-22T22:15:20.264Z,100830.53
2022-10-22T22:17:48.100Z,100830.53
2022-10-22T22:20:15.624Z,100832.28
2022-10-22T22:22:44.519Z,100826.69
2022-10-22T22:25:12.074Z,100822.38
2022-10-22T22:27:39.710Z,100825.09
2022-10-22T22:30:08.132Z,100826.06
2022-10-22T22:32:35.577Z,100817.25
2022-10-22T22:35:03.028Z,100814.72
2022-10-22T22:37:30.493Z,100827.47
2022-10-22T22:39:59.346Z,100835.50
2022-10-22T22:42:26.801Z,100827.53
2022-10-22T22:44:54.249Z,100814.91
2022-10-22T22:47:21.710Z,100820.03
2022-10-22T22:49:49.183Z,100817.47
2022-10-22T22:52:16.699Z,100816.84
2022-10-22T22:54:44.210Z,100813.66
2022-10-22T22:57:13.018Z,100805.56
2022-10-22T22:59:40.504Z,100808.84
2022-10-22T23:02:07.966Z,100809.50
2022-10-22T23:04:35.446Z,100822.50
2022-10-22T23:07:02.890Z,100809.56
2022-10-22T23:09:30.359Z,100807.75
2022-10-22T23:11:57.800Z,100808.38
2022-10-22T23:14:26.625Z,100805.50
2022-10-22T23:16:54.276Z,100813.41
2022-10-22T23:19:22.261Z,100810.19
2022-10-22T23:21:50.468Z,100808.44
2022-10-22T23:24:18.841Z,100807.25
2022-10-22T23:26:46.856Z,100792.22
2022-10-22T23:29:15.164Z,100797.75
2022-10-22T23:31:44.506Z,100793.47
2022-10-22T23:34:12.707Z,100796.34
2022-10-22T23:36:40.338Z,100800.03
2022-10-22T23:39:08.270Z,100788.59
2022-10-22T23:41:35.761Z,100786.03
2022-10-22T23:44:03.468Z,100780.03
2022-10-22T23:46:31.213Z,100776.34
2022-10-22T23:49:00.049Z,100774.59
2022-10-22T23:51:27.548Z,100780.19
2022-10-22T23:53:55.404Z,100780.72
2022-10-22T23:56:22.875Z,100775.19
2022-10-22T23:58:51.914Z,100778.81
